Terminal Aerodrome Forecast
Issued by NWS

Home | Current Version | Previous Version | Text Only | Print | Product List | Glossary On
Versions: 1 2 3 4 5 6 7 8 9 10 11 12 13 14
099
FTAK31 PAJN 202320
TAFASI
TAF
PASI 202320Z 2100/2124 31010KT P6SM SKC
     FM211000 34006KT P6SM BKN045
     FM211500 VRB03KT P6SM VCSH OVC035
     FM212000 20007KT 4SM -SHSN OVC025=

USA.gov is the U.S. government's official web portal to all federal, state and local government web resources and services.